createdAt,value
2023-03-21T00:00:58.822Z,97.45
2023-03-21T00:01:58.897Z,97.66
2023-03-21T00:02:58.816Z,97.77
2023-03-21T00:03:58.862Z,97.56
2023-03-21T00:05:09.423Z,97.45
2023-03-21T00:05:59.830Z,97.45
2023-03-21T00:06:58.753Z,97.87
2023-03-21T00:08:01.025Z,97.36
2023-03-21T00:08:58.746Z,98.49
2023-03-21T00:10:08.686Z,97.87
2023-03-21T00:10:59.729Z,97.87
2023-03-21T00:11:58.779Z,98.49
2023-03-21T00:12:58.772Z,98.49
2023-03-21T00:13:58.677Z,98.49
2023-03-21T00:14:58.716Z,97.15
2023-03-21T00:16:12.205Z,97.56
2023-03-21T00:16:59.672Z,98.69
2023-03-21T00:17:58.745Z,98.65
2023-03-21T00:18:58.646Z,98.44
2023-03-21T00:19:58.632Z,97.87
2023-03-21T00:21:18.716Z,97.77
2023-03-21T00:22:07.355Z,97.77
2023-03-21T00:22:59.636Z,97.77
2023-03-21T00:23:58.665Z,97.82
2023-03-21T00:24:58.606Z,98.28
2023-03-21T00:25:58.566Z,97.97
2023-03-21T00:27:10.684Z,98.07
2023-03-21T00:28:08.095Z,97.45
2023-03-21T00:28:59.546Z,98.03
2023-03-21T00:29:58.578Z,98.13
2023-03-21T00:30:58.506Z,97.36
2023-03-21T00:31:58.494Z,98.69
2023-03-21T00:33:03.575Z,98.07
2023-03-21T00:33:59.492Z,97.92
2023-03-21T00:35:16.416Z,97.97
2023-03-21T00:36:05.189Z,97.66
2023-03-21T00:36:59.443Z,98.28
2023-03-21T00:37:58.495Z,98.69
2023-03-21T00:38:58.500Z,97.82
2023-03-21T00:39:58.539Z,98.38
2023-03-21T00:41:04.733Z,98.69
2023-03-21T00:41:59.429Z,97.87
2023-03-21T00:42:58.399Z,98.28
2023-03-21T00:43:58.427Z,98.18
2023-03-21T00:44:58.386Z,98.18
2023-03-21T00:45:58.351Z,98.24
2023-03-21T00:47:06.941Z,97.92
2023-03-21T00:47:59.551Z,98.13
2023-03-21T00:48:58.381Z,98.38
2023-03-21T00:49:58.330Z,98.13
2023-03-21T00:50:58.306Z,98.13
2023-03-21T00:52:08.727Z,98.18
2023-03-21T00:52:59.274Z,98.24
2023-03-21T00:53:58.355Z,97.52
2023-03-21T00:54:58.264Z,97.41
2023-03-21T00:55:58.260Z,97.97
2023-03-21T00:56:58.227Z,97.41
2023-03-21T00:58:02.215Z,97.92
2023-03-21T00:58:58.224Z,97.82
2023-03-21T00:59:58.317Z,97.10
2023-03-21T01:00:58.213Z,98.24
2023-03-21T01:01:58.202Z,98.44
2023-03-21T01:03:08.579Z,98.44
2023-03-21T01:03:59.237Z,98.44
2023-03-21T01:04:58.231Z,97.56
2023-03-21T01:05:58.157Z,98.49
2023-03-21T01:06:58.130Z,98.44
2023-03-21T01:07:58.144Z,98.03
2023-03-21T01:08:58.162Z,98.44
2023-03-21T01:09:58.177Z,97.82
2023-03-21T01:10:58.101Z,97.52
2023-03-21T01:11:58.085Z,97.52
2023-03-21T01:12:58.071Z,97.62
2023-03-21T01:14:10.757Z,97.52
2023-03-21T01:14:59.061Z,97.72
2023-03-21T01:15:58.111Z,97.72
2023-03-21T01:16:58.045Z,97.72
2023-03-21T01:17:58.011Z,97.62
2023-03-21T01:18:58.074Z,97.72
2023-03-21T01:19:58.004Z,97.52
2023-03-21T01:20:57.987Z,97.41
2023-03-21T01:21:57.990Z,97.41
2023-03-21T01:22:57.981Z,97.41
2023-03-21T01:23:58.021Z,97.62
2023-03-21T01:25:08.769Z,97.41
2023-03-21T01:25:58.937Z,97.52
2023-03-21T01:26:57.930Z,97.20
2023-03-21T01:27:57.910Z,97.31
2023-03-21T01:28:57.924Z,97.20
2023-03-21T01:29:58.683Z,97.00
2023-03-21T01:30:57.923Z,97.20
2023-03-21T01:31:57.870Z,96.69
2023-03-21T01:32:57.862Z,97.31
2023-03-21T01:33:57.944Z,97.00
2023-03-21T01:34:57.841Z,97.20
2023-03-21T01:36:10.339Z,97.00
2023-03-21T01:36:58.851Z,97.00
2023-03-21T01:37:57.819Z,97.10
2023-03-21T01:38:58.006Z,97.00
2023-03-21T01:39:57.786Z,97.00
2023-03-21T01:40:58.032Z,97.20
2023-03-21T01:41:57.777Z,97.31
2023-03-21T01:42:57.742Z,97.00
2023-03-21T01:43:57.760Z,97.10
2023-03-21T01:44:57.887Z,96.90
2023-03-21T01:45:57.730Z,97.20
2023-03-21T01:47:09.895Z,96.90
2023-03-21T01:47:58.761Z,97.10
2023-03-21T01:48:57.753Z,97.00
2023-03-21T01:49:57.758Z,97.31
2023-03-21T01:50:57.662Z,97.10
2023-03-21T01:52:01.088Z,97.41
2023-03-21T01:52:58.649Z,96.90
2023-03-21T01:53:57.650Z,96.65
2023-03-21T01:54:57.740Z,96.69
2023-03-21T01:55:57.607Z,96.59
2023-03-21T01:56:57.600Z,96.69
2023-03-21T01:58:05.937Z,96.28
2023-03-21T01:58:58.583Z,96.48
2023-03-21T01:59:57.613Z,97.10
2023-03-21T02:00:57.587Z,96.48
2023-03-21T02:01:57.608Z,97.16
2023-03-21T02:03:06.069Z,96.95
2023-03-21T02:03:58.542Z,97.37
2023-03-21T02:04:57.607Z,96.80
2023-03-21T02:05:57.502Z,96.55
2023-03-21T02:06:57.526Z,97.00
2023-03-21T02:07:57.497Z,96.69
2023-03-21T02:08:57.480Z,96.95
2023-03-21T02:09:57.545Z,96.69
2023-03-21T02:10:57.522Z,96.44
2023-03-21T02:11:57.451Z,96.55
2023-03-21T02:12:57.442Z,96.95
2023-03-21T02:14:06.762Z,97.00
2023-03-21T02:14:58.519Z,96.18
2023-03-21T02:15:57.410Z,96.69
2023-03-21T02:16:57.504Z,96.48
2023-03-21T02:17:57.454Z,96.65
2023-03-21T02:18:57.363Z,96.65
2023-03-21T02:19:57.397Z,96.55
2023-03-21T02:20:57.350Z,96.55
2023-03-21T02:21:57.341Z,96.44
2023-03-21T02:22:57.330Z,96.44
2023-03-21T02:23:57.383Z,96.44
2023-03-21T02:25:01.328Z,96.44
2023-03-21T02:25:58.316Z,97.06
2023-03-21T02:27:03.892Z,96.44
2023-03-21T02:27:58.284Z,97.37
2023-03-21T02:28:57.333Z,97.27
2023-03-21T02:29:57.279Z,96.95
2023-03-21T02:30:57.696Z,96.95
2023-03-21T02:32:03.460Z,96.75
2023-03-21T02:32:58.224Z,97.27
2023-03-21T02:33:57.234Z,97.06
2023-03-21T02:34:58.393Z,97.27
2023-03-21T02:36:03.034Z,97.37
2023-03-21T02:36:58.305Z,96.85
2023-03-21T02:38:00.654Z,96.85
2023-03-21T02:38:57.221Z,96.95
2023-03-21T02:39:57.178Z,97.16
2023-03-21T02:40:57.134Z,96.95
2023-03-21T02:41:57.195Z,97.16
2023-03-21T02:43:00.909Z,97.16
2023-03-21T02:43:57.171Z,97.27
2023-03-21T02:44:57.118Z,96.70
2023-03-21T02:45:57.143Z,96.95
2023-03-21T02:47:05.450Z,96.75
2023-03-21T02:47:58.147Z,97.16
2023-03-21T02:48:57.174Z,97.27
2023-03-21T02:49:57.057Z,97.67
2023-03-21T02:50:57.040Z,97.37
2023-03-21T02:52:00.238Z,97.57
2023-03-21T02:52:58.076Z,97.67
2023-03-21T02:54:23.725Z,97.67
2023-03-21T02:54:58.000Z,97.78
2023-03-21T02:55:56.988Z,97.67
2023-03-21T02:56:56.980Z,98.39
2023-03-21T02:57:56.986Z,98.60
2023-03-21T02:58:57.033Z,97.37
2023-03-21T03:00:00.416Z,97.78
2023-03-21T03:00:57.970Z,97.88
2023-03-21T03:01:56.930Z,97.67
2023-03-21T03:03:08.163Z,97.88
2023-03-21T03:03:58.031Z,97.67
2023-03-21T03:04:56.944Z,97.78
2023-03-21T03:05:57.024Z,98.29
2023-03-21T03:06:56.874Z,97.78
2023-03-21T03:07:56.886Z,97.83
2023-03-21T03:09:02.628Z,97.47
2023-03-21T03:09:57.911Z,97.57
2023-03-21T03:10:56.897Z,97.78
2023-03-21T03:11:56.833Z,98.08
2023-03-21T03:12:56.823Z,97.78
2023-03-21T03:13:58.068Z,98.08
2023-03-21T03:15:03.565Z,97.67
2023-03-21T03:15:57.882Z,97.37
2023-03-21T03:16:56.766Z,97.88
2023-03-21T03:17:56.765Z,97.57
2023-03-21T03:18:57.138Z,98.19
2023-03-21T03:19:57.182Z,97.99
2023-03-21T03:20:56.738Z,97.99
2023-03-21T03:21:56.734Z,97.57
2023-03-21T03:22:56.719Z,98.60
2023-03-21T03:23:56.734Z,97.78
2023-03-21T03:24:56.753Z,98.60
2023-03-21T03:25:56.691Z,97.88
2023-03-21T03:26:56.700Z,98.19
2023-03-21T03:27:56.661Z,97.78
2023-03-21T03:28:56.640Z,98.39
2023-03-21T03:29:56.741Z,98.70
2023-03-21T03:31:08.595Z,97.47
2023-03-21T03:31:57.633Z,98.08
2023-03-21T03:32:56.594Z,97.67
2023-03-21T03:33:56.610Z,98.08
2023-03-21T03:34:56.644Z,98.19
2023-03-21T03:36:05.061Z,97.99
2023-03-21T03:36:57.650Z,98.50
2023-03-21T03:37:56.574Z,97.99
2023-03-21T03:38:56.590Z,97.78
2023-03-21T03:39:56.527Z,98.19
2023-03-21T03:40:56.515Z,98.19
2023-03-21T03:42:10.032Z,97.78
2023-03-21T03:42:57.517Z,97.99
2023-03-21T03:43:56.565Z,97.67
2023-03-21T03:45:17.486Z,97.88
2023-03-21T03:45:56.463Z,98.39
2023-03-21T03:46:56.610Z,98.80
2023-03-21T03:47:57.644Z,98.60
2023-03-21T03:48:56.496Z,98.08
2023-03-21T03:49:56.471Z,98.39
2023-03-21T03:50:56.420Z,98.50
2023-03-21T03:51:56.421Z,98.91
2023-03-21T03:52:58.757Z,98.70
2023-03-21T03:53:56.442Z,99.01
2023-03-21T03:54:56.380Z,98.50
2023-03-21T03:55:56.379Z,99.21
2023-03-21T03:56:56.358Z,98.70
2023-03-21T03:57:56.355Z,99.11
2023-03-21T03:58:56.424Z,99.01
2023-03-21T03:59:56.323Z,99.21
2023-03-21T04:00:56.386Z,99.01
2023-03-21T04:01:56.452Z,99.63
2023-03-21T04:02:56.324Z,99.63
2023-03-21T04:04:06.970Z,99.73
2023-03-21T04:04:57.273Z,99.99
2023-03-21T04:05:56.262Z,99.99
2023-03-21T04:06:58.016Z,99.99
2023-03-21T04:07:56.246Z,99.99
2023-03-21T04:08:56.228Z,99.99
2023-03-21T04:09:56.288Z,99.99
2023-03-21T04:10:56.252Z,99.99
2023-03-21T04:11:56.280Z,99.99
2023-03-21T04:12:56.184Z,99.99
2023-03-21T04:13:56.177Z,99.99
2023-03-21T04:15:01.983Z,99.99
2023-03-21T04:15:57.193Z,99.99
2023-03-21T04:16:56.168Z,99.99
2023-03-21T04:17:56.216Z,99.99
2023-03-21T04:18:56.126Z,99.99
2023-03-21T04:20:05.487Z,99.99
2023-03-21T04:20:57.124Z,99.99
2023-03-21T04:21:56.094Z,99.99
2023-03-21T04:22:56.164Z,99.99
2023-03-21T04:23:56.072Z,99.99
2023-03-21T04:24:56.147Z,99.99
2023-03-21T04:25:57.310Z,99.99
2023-03-21T04:26:56.040Z,99.99
2023-03-21T04:27:56.044Z,99.99
2023-03-21T04:28:56.109Z,99.99
2023-03-21T04:29:56.011Z,99.99
2023-03-21T04:31:03.575Z,99.99
2023-03-21T04:31:57.102Z,99.99
2023-03-21T04:32:56.051Z,99.99
2023-03-21T04:33:56.135Z,99.99
2023-03-21T04:34:55.959Z,99.99
2023-03-21T04:35:55.996Z,99.99
2023-03-21T04:36:55.926Z,99.99
2023-03-21T04:37:55.932Z,99.99
2023-03-21T04:38:55.977Z,99.99
2023-03-21T04:39:55.954Z,99.99
2023-03-21T04:40:55.909Z,99.99
2023-03-21T04:41:55.885Z,99.99
2023-03-21T04:42:55.902Z,99.99
2023-03-21T04:43:55.948Z,99.99
2023-03-21T04:44:55.855Z,99.99
2023-03-21T04:45:55.923Z,99.99
2023-03-21T04:46:55.841Z,99.99
2023-03-21T04:47:55.861Z,99.99
2023-03-21T04:48:55.899Z,99.99
2023-03-21T04:49:55.809Z,99.99
2023-03-21T04:50:55.783Z,99.99
2023-03-21T04:51:55.839Z,99.99
2023-03-21T04:52:55.837Z,99.99
2023-03-21T04:53:55.757Z,99.99
2023-03-21T04:54:55.773Z,99.99
2023-03-21T04:55:55.787Z,99.99
2023-03-21T04:56:55.769Z,99.99
2023-03-21T04:57:55.722Z,99.99
2023-03-21T04:58:55.708Z,99.99
2023-03-21T04:59:55.705Z,99.99
2023-03-21T05:00:55.788Z,99.99
2023-03-21T05:01:55.674Z,99.99
2023-03-21T05:02:55.669Z,99.99
2023-03-21T05:03:55.721Z,99.99
2023-03-21T05:04:55.651Z,99.99
2023-03-21T05:05:55.719Z,99.99
2023-03-21T05:06:55.613Z,99.99
2023-03-21T05:07:55.660Z,99.99
2023-03-21T05:08:55.586Z,99.99
2023-03-21T05:09:55.599Z,99.99
2023-03-21T05:10:55.655Z,99.99
2023-03-21T05:11:55.568Z,99.99
2023-03-21T05:12:55.553Z,99.99
2023-03-21T05:13:55.605Z,99.99
2023-03-21T05:14:55.538Z,99.99
2023-03-21T05:15:55.527Z,99.99
2023-03-21T05:16:55.638Z,99.99
2023-03-21T05:17:55.504Z,99.99
2023-03-21T05:18:56.090Z,99.99
2023-03-21T05:19:55.528Z,99.99
2023-03-21T05:20:55.483Z,99.99
2023-03-21T05:21:55.461Z,99.99
2023-03-21T05:22:55.480Z,99.99
2023-03-21T05:23:55.464Z,99.99
2023-03-21T05:24:55.505Z,99.99
2023-03-21T05:25:55.420Z,99.99
2023-03-21T05:26:55.419Z,99.99
2023-03-21T05:27:55.401Z,99.99
2023-03-21T05:28:55.383Z,99.99
2023-03-21T05:29:55.468Z,99.99
2023-03-21T05:30:55.435Z,99.99
2023-03-21T05:31:55.360Z,99.99
2023-03-21T05:32:55.381Z,99.99
2023-03-21T05:33:55.328Z,99.99
2023-03-21T05:34:55.313Z,99.99
2023-03-21T05:35:55.414Z,99.99
2023-03-21T05:36:55.310Z,99.99
2023-03-21T05:37:55.352Z,99.99
2023-03-21T05:38:55.294Z,99.99
2023-03-21T05:39:55.267Z,99.99
2023-03-21T05:40:55.270Z,99.99
2023-03-21T05:41:55.259Z,99.99
2023-03-21T05:42:55.277Z,99.99
2023-03-21T05:43:55.234Z,99.99
2023-03-21T05:44:55.255Z,99.99
2023-03-21T05:45:55.335Z,99.99
2023-03-21T05:46:55.215Z,99.99
2023-03-21T05:47:55.306Z,99.99
2023-03-21T05:48:55.183Z,99.99
2023-03-21T05:49:55.190Z,99.99
2023-03-21T05:50:55.247Z,99.99
2023-03-21T05:51:55.160Z,99.99
2023-03-21T05:52:55.154Z,99.99
2023-03-21T05:53:56.117Z,99.99
2023-03-21T05:54:55.141Z,99.99
2023-03-21T05:55:55.168Z,99.99
2023-03-21T05:56:55.092Z,99.99
2023-03-21T05:57:55.089Z,99.99
2023-03-21T05:58:55.066Z,99.99
2023-03-21T05:59:55.134Z,99.99
2023-03-21T06:00:55.207Z,99.99
2023-03-21T06:01:55.039Z,99.99
2023-03-21T06:02:55.091Z,99.99
2023-03-21T06:03:55.192Z,99.99
2023-03-21T06:04:55.108Z,99.99
2023-03-21T06:05:54.997Z,99.99
2023-03-21T06:06:54.987Z,99.99
2023-03-21T06:07:54.982Z,99.99
2023-03-21T06:08:55.932Z,99.99
2023-03-21T06:09:55.322Z,99.99
2023-03-21T06:10:55.015Z,99.99
2023-03-21T06:11:54.963Z,99.99
2023-03-21T06:12:54.931Z,99.99
2023-03-21T06:13:54.969Z,99.99
2023-03-21T06:14:55.569Z,99.99
2023-03-21T06:15:55.042Z,99.99
2023-03-21T06:16:54.885Z,99.99
2023-03-21T06:17:54.862Z,99.99
2023-03-21T06:18:54.866Z,99.99
2023-03-21T06:19:54.900Z,99.99
2023-03-21T06:20:54.845Z,99.99
2023-03-21T06:21:54.899Z,99.99
2023-03-21T06:22:54.861Z,99.99
2023-03-21T06:23:54.820Z,99.99
2023-03-21T06:24:54.886Z,99.99
2023-03-21T06:25:54.799Z,99.99
2023-03-21T06:26:54.796Z,99.99
2023-03-21T06:27:54.772Z,99.99
2023-03-21T06:28:54.823Z,99.99
2023-03-21T06:29:54.804Z,99.99
2023-03-21T06:30:54.835Z,99.99
2023-03-21T06:31:54.734Z,99.99
2023-03-21T06:32:54.722Z,99.99
2023-03-21T06:33:54.713Z,99.99
2023-03-21T06:34:54.767Z,99.99
2023-03-21T06:35:54.872Z,99.99
2023-03-21T06:36:54.687Z,99.99
2023-03-21T06:37:54.675Z,99.99
2023-03-21T06:38:54.749Z,99.99
2023-03-21T06:39:55.644Z,99.99
2023-03-21T06:40:54.654Z,99.99
2023-03-21T06:41:54.713Z,99.99
2023-03-21T06:42:54.617Z,99.99
2023-03-21T06:43:54.606Z,99.99
2023-03-21T06:44:54.599Z,99.99
2023-03-21T06:45:54.580Z,99.99
2023-03-21T06:46:54.614Z,99.99
2023-03-21T06:47:54.679Z,99.99
2023-03-21T06:48:54.555Z,99.99
2023-03-21T06:49:54.556Z,99.99
2023-03-21T06:50:54.590Z,99.99
2023-03-21T06:51:54.523Z,99.99
2023-03-21T06:52:54.521Z,99.99
2023-03-21T06:53:54.497Z,99.99
2023-03-21T06:54:54.487Z,99.99
2023-03-21T06:55:54.575Z,99.99
2023-03-21T06:56:54.537Z,99.99
2023-03-21T06:57:54.462Z,99.99
2023-03-21T06:58:54.453Z,99.99
2023-03-21T06:59:54.473Z,99.99
2023-03-21T07:00:54.486Z,99.99
2023-03-21T07:01:54.485Z,99.99
2023-03-21T07:02:54.558Z,99.99
2023-03-21T07:03:54.411Z,99.99
2023-03-21T07:04:54.377Z,99.99
2023-03-21T07:05:54.368Z,99.99
2023-03-21T07:06:54.385Z,99.99
2023-03-21T07:07:54.415Z,99.99
2023-03-21T07:08:54.349Z,99.99
2023-03-21T07:09:54.394Z,99.89
2023-03-21T07:10:54.338Z,99.99
2023-03-21T07:11:54.344Z,99.99
2023-03-21T07:12:54.332Z,99.79
2023-03-21T07:13:54.342Z,99.89
2023-03-21T07:14:54.343Z,99.68
2023-03-21T07:15:54.336Z,99.68
2023-03-21T07:16:54.319Z,99.58
2023-03-21T07:17:54.336Z,99.99
2023-03-21T07:18:54.349Z,99.99
2023-03-21T07:19:54.289Z,99.99
2023-03-21T07:20:54.217Z,99.58
2023-03-21T07:21:54.216Z,99.58
2023-03-21T07:22:54.317Z,99.68
2023-03-21T07:23:54.195Z,99.58
2023-03-21T07:25:04.266Z,99.68
2023-03-21T07:25:56.785Z,99.68
2023-03-21T07:26:54.149Z,99.48
2023-03-21T07:27:54.196Z,99.27
2023-03-21T07:28:54.147Z,99.99
2023-03-21T07:29:54.123Z,99.95
2023-03-21T07:30:54.138Z,99.99
2023-03-21T07:31:54.244Z,99.99
2023-03-21T07:32:54.161Z,99.99
2023-03-21T07:33:54.092Z,99.99
2023-03-21T07:34:54.135Z,99.99
2023-03-21T07:35:54.151Z,99.99
2023-03-21T07:36:54.054Z,99.99
2023-03-21T07:37:54.037Z,99.99
2023-03-21T07:38:54.038Z,99.99
2023-03-21T07:39:54.157Z,99.99
2023-03-21T07:40:54.040Z,99.99
2023-03-21T07:41:54.000Z,99.99
2023-03-21T07:42:54.008Z,99.99
2023-03-21T07:43:54.007Z,99.99
2023-03-21T07:44:54.057Z,99.99
2023-03-21T07:45:54.530Z,99.99
2023-03-21T07:46:53.940Z,99.99
2023-03-21T07:47:53.948Z,99.99
2023-03-21T07:48:53.925Z,99.99
2023-03-21T07:49:53.983Z,99.99
2023-03-21T07:50:53.907Z,99.99
2023-03-21T07:51:53.925Z,99.99
2023-03-21T07:52:53.977Z,99.99
2023-03-21T07:53:53.873Z,99.99
2023-03-21T07:54:53.863Z,99.99
2023-03-21T07:55:53.864Z,99.99
2023-03-21T07:56:53.850Z,99.99
2023-03-21T07:57:53.901Z,99.99
2023-03-21T07:58:53.821Z,99.99
2023-03-21T07:59:53.865Z,99.99
2023-03-21T08:00:53.836Z,99.99
2023-03-21T08:01:53.836Z,99.99
2023-03-21T08:02:55.573Z,99.99
2023-03-21T08:03:53.943Z,99.99
2023-03-21T08:04:53.821Z,99.99
2023-03-21T08:05:53.762Z,99.99
2023-03-21T08:06:53.731Z,99.99
2023-03-21T08:07:53.710Z,99.99
2023-03-21T08:08:53.775Z,99.99
2023-03-21T08:09:53.714Z,99.99
2023-03-21T08:10:53.894Z,99.99
2023-03-21T08:11:53.674Z,99.99
2023-03-21T08:12:53.837Z,99.99
2023-03-21T08:13:53.724Z,99.99
2023-03-21T08:14:53.638Z,99.99
2023-03-21T08:15:53.624Z,99.99
2023-03-21T08:16:53.805Z,99.99
2023-03-21T08:17:53.619Z,99.99
2023-03-21T08:18:53.646Z,99.99
2023-03-21T08:19:53.607Z,99.99
2023-03-21T08:20:53.603Z,99.99
2023-03-21T08:21:53.590Z,99.99
2023-03-21T08:22:53.573Z,99.99
2023-03-21T08:23:53.630Z,99.99
2023-03-21T08:24:53.564Z,99.99
2023-03-21T08:25:53.527Z,99.99
2023-03-21T08:26:53.653Z,99.99
2023-03-21T08:27:53.503Z,99.99
2023-03-21T08:28:53.562Z,99.99
2023-03-21T08:29:53.506Z,99.99
2023-03-21T08:30:53.573Z,99.99
2023-03-21T08:31:53.475Z,99.99
2023-03-21T08:32:53.476Z,99.99
2023-03-21T08:33:53.514Z,99.99
2023-03-21T08:34:53.429Z,99.99
2023-03-21T08:35:53.465Z,99.99
2023-03-21T08:36:53.521Z,99.99
2023-03-21T08:37:53.415Z,99.99
2023-03-21T08:38:53.424Z,99.99
2023-03-21T08:39:53.439Z,99.99
2023-03-21T08:40:53.373Z,99.99
2023-03-21T08:41:53.418Z,99.99
2023-03-21T08:42:53.463Z,99.99
2023-03-21T08:43:53.334Z,99.99
2023-03-21T08:44:53.420Z,99.99
2023-03-21T08:45:53.366Z,99.99
2023-03-21T08:46:53.311Z,99.99
2023-03-21T08:47:53.318Z,99.99
2023-03-21T08:48:53.312Z,99.99
2023-03-21T08:49:53.299Z,99.99
2023-03-21T08:50:53.322Z,99.99
2023-03-21T08:51:53.256Z,99.99
2023-03-21T08:52:53.270Z,99.99
2023-03-21T08:53:53.237Z,99.99
2023-03-21T08:54:53.220Z,99.99
2023-03-21T08:55:53.286Z,99.99
2023-03-21T08:56:53.310Z,99.99
2023-03-21T08:57:53.192Z,99.99
2023-03-21T08:58:53.194Z,99.99
2023-03-21T08:59:53.239Z,99.99
2023-03-21T09:00:53.164Z,99.99
2023-03-21T09:01:53.375Z,99.99
2023-03-21T09:02:53.139Z,99.99
2023-03-21T09:03:53.148Z,99.99
2023-03-21T09:04:53.347Z,99.99
2023-03-21T09:05:53.121Z,99.99
2023-03-21T09:06:53.108Z,99.99
2023-03-21T09:07:53.159Z,99.99
2023-03-21T09:08:53.080Z,99.99
2023-03-21T09:10:08.140Z,99.99
2023-03-21T09:10:54.113Z,99.99
2023-03-21T09:11:53.086Z,99.99
2023-03-21T09:12:53.052Z,99.99
2023-03-21T09:13:53.025Z,99.99
2023-03-21T09:14:53.026Z,99.99
2023-03-21T09:15:53.153Z,99.99
2023-03-21T09:16:52.995Z,99.99
2023-03-21T09:17:53.383Z,99.99
2023-03-21T09:18:52.978Z,99.99
2023-03-21T09:19:52.962Z,99.99
2023-03-21T09:20:52.969Z,99.99
2023-03-21T09:21:52.946Z,99.99
2023-03-21T09:22:52.929Z,99.99
2023-03-21T09:23:53.063Z,99.99
2023-03-21T09:24:52.960Z,99.99
2023-03-21T09:25:52.903Z,99.99
2023-03-21T09:26:52.890Z,99.99
2023-03-21T09:27:52.885Z,99.99
2023-03-21T09:28:52.945Z,99.99
2023-03-21T09:29:52.902Z,99.99
2023-03-21T09:30:52.941Z,99.99
2023-03-21T09:31:52.868Z,99.99
2023-03-21T09:32:52.890Z,99.99
2023-03-21T09:33:52.840Z,99.99
2023-03-21T09:34:52.868Z,99.99
2023-03-21T09:35:53.909Z,99.99
2023-03-21T09:36:52.786Z,99.99
2023-03-21T09:37:52.823Z,99.99
2023-03-21T09:38:53.089Z,99.99
2023-03-21T09:39:52.813Z,99.99
2023-03-21T09:40:52.783Z,99.99
2023-03-21T09:41:52.738Z,99.99
2023-03-21T09:42:52.820Z,99.99
2023-03-21T09:43:52.766Z,99.99
2023-03-21T09:44:52.722Z,99.99
2023-03-21T09:45:52.699Z,99.99
2023-03-21T09:46:52.818Z,99.99
2023-03-21T09:47:52.784Z,99.99
2023-03-21T09:48:57.265Z,99.99
2023-03-21T09:49:56.548Z,99.99
2023-03-21T09:50:53.650Z,99.99
2023-03-21T09:51:53.371Z,99.99
2023-03-21T09:52:52.615Z,99.99
2023-03-21T09:53:52.651Z,99.99
2023-03-21T09:54:52.604Z,99.99
2023-03-21T09:55:52.586Z,99.99
2023-03-21T09:56:52.592Z,99.99
2023-03-21T09:57:52.548Z,99.99
2023-03-21T09:58:52.613Z,99.99
2023-03-21T09:59:52.582Z,99.99
2023-03-21T10:00:52.560Z,99.99
2023-03-21T10:01:52.523Z,99.99
2023-03-21T10:02:52.551Z,99.99
2023-03-21T10:03:52.484Z,99.99
2023-03-21T10:04:52.579Z,99.99
2023-03-21T10:05:52.473Z,99.99
2023-03-21T10:06:52.454Z,99.99
2023-03-21T10:07:52.457Z,99.99
2023-03-21T10:08:52.476Z,99.99
2023-03-21T10:09:52.684Z,99.99
2023-03-21T10:10:52.414Z,99.99
2023-03-21T10:11:52.427Z,99.99
2023-03-21T10:12:52.414Z,99.99
2023-03-21T10:13:52.382Z,99.99
2023-03-21T10:14:52.455Z,99.99
2023-03-21T10:15:52.378Z,99.99
2023-03-21T10:16:52.411Z,99.99
2023-03-21T10:17:52.344Z,99.99
2023-03-21T10:18:52.350Z,99.99
2023-03-21T10:19:52.379Z,99.99
2023-03-21T10:20:52.327Z,99.99
2023-03-21T10:22:00.893Z,99.99
2023-03-21T10:22:53.294Z,99.99
2023-03-21T10:23:52.282Z,99.99
2023-03-21T10:24:52.289Z,99.99
2023-03-21T10:25:52.369Z,99.99
2023-03-21T10:26:52.313Z,99.99
2023-03-21T10:27:52.223Z,99.99
2023-03-21T10:28:53.621Z,99.99
2023-03-21T10:29:52.224Z,99.99
2023-03-21T10:30:52.204Z,99.99
2023-03-21T10:31:52.300Z,99.99
2023-03-21T10:32:52.352Z,99.99
2023-03-21T10:33:52.171Z,99.99
2023-03-21T10:34:52.247Z,99.99
2023-03-21T10:35:52.212Z,99.99
2023-03-21T10:36:52.213Z,99.99
2023-03-21T10:37:52.129Z,99.99
2023-03-21T10:38:52.121Z,99.99
2023-03-21T10:39:52.096Z,99.99
2023-03-21T10:40:52.156Z,99.99
2023-03-21T10:41:52.084Z,99.99
2023-03-21T10:42:52.092Z,99.99
2023-03-21T10:43:52.114Z,99.99
2023-03-21T10:44:52.049Z,99.99
2023-03-21T10:45:52.218Z,99.99
2023-03-21T10:46:52.312Z,99.99
2023-03-21T10:47:52.262Z,99.99
2023-03-21T10:48:52.273Z,99.99
2023-03-21T10:50:09.212Z,99.99
2023-03-21T10:50:53.064Z,99.99
2023-03-21T10:51:51.982Z,99.99
2023-03-21T10:52:52.041Z,99.99
2023-03-21T10:53:52.024Z,99.99
2023-03-21T10:54:51.944Z,99.99
2023-03-21T10:55:51.949Z,99.99
2023-03-21T10:56:52.014Z,99.99
2023-03-21T10:57:51.920Z,99.99
2023-03-21T10:58:51.911Z,99.99
2023-03-21T10:59:51.947Z,99.99
2023-03-21T11:00:51.948Z,99.99
2023-03-21T11:01:51.900Z,99.99
2023-03-21T11:02:51.915Z,99.99
2023-03-21T11:03:51.854Z,99.99
2023-03-21T11:04:52.027Z,99.99
2023-03-21T11:05:51.879Z,99.99
2023-03-21T11:06:51.905Z,99.99
2023-03-21T11:07:51.823Z,99.99
2023-03-21T11:08:51.810Z,99.99
2023-03-21T11:09:53.627Z,99.99
2023-03-21T11:10:51.868Z,99.99
2023-03-21T11:11:51.789Z,99.99
2023-03-21T11:12:51.765Z,99.99
2023-03-21T11:13:51.775Z,99.99
2023-03-21T11:14:51.900Z,99.99
2023-03-21T11:15:51.725Z,99.99
2023-03-21T11:16:51.897Z,99.99
2023-03-21T11:17:51.717Z,99.99
2023-03-21T11:18:51.698Z,99.99
2023-03-21T11:19:51.716Z,99.99
2023-03-21T11:20:51.747Z,99.99
2023-03-21T11:21:51.687Z,99.99
2023-03-21T11:22:51.719Z,99.99
2023-03-21T11:23:51.652Z,99.99
2023-03-21T11:24:51.651Z,99.99
2023-03-21T11:25:51.715Z,99.99
2023-03-21T11:26:54.388Z,99.99
2023-03-21T11:27:52.231Z,99.99
2023-03-21T11:28:51.607Z,99.99
2023-03-21T11:29:51.581Z,99.99
2023-03-21T11:30:51.591Z,99.99
2023-03-21T11:31:51.612Z,99.99
2023-03-21T11:32:51.553Z,99.99
2023-03-21T11:33:51.566Z,99.99
2023-03-21T11:34:51.543Z,99.99
2023-03-21T11:35:51.554Z,99.99
2023-03-21T11:36:51.568Z,99.99
2023-03-21T11:37:52.824Z,99.99
2023-03-21T11:38:51.472Z,99.99
2023-03-21T11:39:51.928Z,99.99
2023-03-21T11:40:51.459Z,99.99
2023-03-21T11:41:51.528Z,99.99
2023-03-21T11:42:52.458Z,99.99
2023-03-21T11:43:51.442Z,99.99
2023-03-21T11:44:51.491Z,99.99
2023-03-21T11:45:51.447Z,99.99
2023-03-21T11:46:53.287Z,99.99
2023-03-21T11:47:51.434Z,99.99
2023-03-21T11:48:51.372Z,99.99
2023-03-21T11:49:58.307Z,99.99
2023-03-21T11:50:53.567Z,99.99
2023-03-21T11:51:51.424Z,99.99
2023-03-21T11:52:51.350Z,99.99
2023-03-21T11:53:51.407Z,99.99
2023-03-21T11:54:51.322Z,99.99
2023-03-21T11:55:51.309Z,99.99
2023-03-21T11:56:51.366Z,99.99
2023-03-21T11:57:51.446Z,99.99
2023-03-21T11:58:51.270Z,99.99
2023-03-21T11:59:51.258Z,99.99
2023-03-21T12:00:51.253Z,99.99
2023-03-21T12:01:51.297Z,99.77
2023-03-21T12:02:51.284Z,99.99
2023-03-21T12:03:52.240Z,99.99
2023-03-21T12:04:51.236Z,99.99
2023-03-21T12:05:51.200Z,99.99
2023-03-21T12:06:52.246Z,99.99
2023-03-21T12:07:51.248Z,99.99
2023-03-21T12:08:51.172Z,99.99
2023-03-21T12:09:51.160Z,99.99
2023-03-21T12:10:51.169Z,99.99
2023-03-21T12:11:51.194Z,99.99
2023-03-21T12:12:51.122Z,99.99
2023-03-21T12:13:51.192Z,99.99
2023-03-21T12:14:51.146Z,99.99
2023-03-21T12:15:52.658Z,99.99
2023-03-21T12:16:51.452Z,99.99
2023-03-21T12:17:51.088Z,99.99
2023-03-21T12:18:51.066Z,99.99
2023-03-21T12:19:51.065Z,99.99
2023-03-21T12:20:51.052Z,99.99
2023-03-21T12:21:52.128Z,99.99
2023-03-21T12:22:51.200Z,99.99
2023-03-21T12:23:51.011Z,99.99
2023-03-21T12:24:52.061Z,99.99
2023-03-21T12:25:50.999Z,99.99
2023-03-21T12:26:51.003Z,99.62
2023-03-21T12:27:51.030Z,99.99
2023-03-21T12:28:50.942Z,99.99
2023-03-21T12:29:50.950Z,99.99
2023-03-21T12:30:50.953Z,99.99
2023-03-21T12:31:51.011Z,99.99
2023-03-21T12:32:51.137Z,99.99
2023-03-21T12:33:50.915Z,99.99
2023-03-21T12:34:50.909Z,99.99
2023-03-21T12:35:50.884Z,99.99
2023-03-21T12:36:50.955Z,99.99
2023-03-21T12:37:52.741Z,99.99
2023-03-21T12:38:50.842Z,99.99
2023-03-21T12:39:50.835Z,99.99
2023-03-21T12:40:50.836Z,99.99
2023-03-21T12:41:50.816Z,99.99
2023-03-21T12:42:50.876Z,99.99
2023-03-21T12:43:50.798Z,99.99
2023-03-21T12:44:50.772Z,99.99
2023-03-21T12:45:50.964Z,99.99
2023-03-21T12:46:50.836Z,99.99
2023-03-21T12:47:50.844Z,99.99
2023-03-21T12:48:50.747Z,99.99
2023-03-21T12:49:51.236Z,99.99
2023-03-21T12:50:50.709Z,99.99
2023-03-21T12:51:50.705Z,99.99
2023-03-21T12:52:50.764Z,99.99